createdAt,value
2018-06-04T00:00:14.021Z,19.20
2018-06-04T00:02:42.583Z,19.20
2018-06-04T00:05:11.151Z,19.20
2018-06-04T00:07:39.647Z,19.10
2018-06-04T00:10:08.211Z,19.10
2018-06-04T00:12:36.757Z,18.90
2018-06-04T00:15:05.456Z,18.90
2018-06-04T00:17:33.997Z,18.90
2018-06-04T00:20:02.571Z,18.90
2018-06-04T00:22:31.078Z,19.10
2018-06-04T00:24:59.614Z,19.00
2018-06-04T00:29:56.315Z,18.90
2018-06-04T00:32:24.811Z,18.80
2018-06-04T00:34:53.356Z,18.70
2018-06-04T00:39:50.086Z,18.60
2018-06-04T00:42:18.623Z,18.70
2018-06-04T00:44:47.115Z,18.70
2018-06-04T00:47:15.669Z,18.60
2018-06-04T00:49:44.181Z,18.70
2018-06-04T00:52:12.658Z,18.80
2018-06-04T00:54:41.162Z,18.80
2018-06-04T00:57:09.686Z,18.70
2018-06-04T00:59:38.216Z,18.60
2018-06-04T01:02:06.748Z,18.60
2018-06-04T01:04:35.264Z,18.70
2018-06-04T01:07:03.783Z,18.60
2018-06-04T01:09:32.298Z,18.50
2018-06-04T01:12:00.813Z,18.50
2018-06-04T01:14:29.325Z,18.50
2018-06-04T01:19:26.008Z,18.40
2018-06-04T01:21:54.507Z,18.40
2018-06-04T01:24:22.996Z,18.30
2018-06-04T01:26:51.500Z,18.20
2018-06-04T01:29:20.026Z,18.10
2018-06-04T01:31:48.551Z,18.10
2018-06-04T01:34:17.067Z,18.10
2018-06-04T01:36:45.595Z,18.20
2018-06-04T01:39:14.107Z,18.20
2018-06-04T01:41:42.601Z,18.30
2018-06-04T01:44:11.120Z,18.30
2018-06-04T01:46:39.647Z,18.20
2018-06-04T01:51:36.291Z,18.10
2018-06-04T01:54:04.847Z,18.10
2018-06-04T01:56:33.394Z,18.10
2018-06-04T01:59:01.931Z,18.00
2018-06-04T02:01:30.464Z,18.00
2018-06-04T02:06:27.158Z,17.90
2018-06-04T02:08:55.686Z,17.80
2018-06-04T02:11:24.178Z,17.80
2018-06-04T02:13:52.684Z,17.90
2018-06-04T02:18:49.369Z,17.80
2018-06-04T02:21:17.886Z,17.70
2018-06-04T02:23:46.431Z,17.60
2018-06-04T02:26:14.930Z,17.60
2018-06-04T02:28:43.432Z,17.60
2018-06-04T02:31:12.062Z,17.70
2018-06-04T02:33:40.607Z,17.60
2018-06-04T02:36:09.092Z,17.60
2018-06-04T02:38:37.590Z,17.50
2018-06-04T02:41:06.085Z,17.40
2018-06-04T02:43:34.621Z,17.30
2018-06-04T02:46:03.157Z,17.30
2018-06-04T02:48:31.672Z,17.30
2018-06-04T02:51:00.173Z,17.40
2018-06-04T02:53:28.835Z,17.40
2018-06-04T02:55:57.357Z,17.40
2018-06-04T02:58:25.841Z,17.30
2018-06-04T03:03:22.558Z,17.30
2018-06-04T03:05:51.081Z,17.30
2018-06-04T03:08:19.621Z,17.30
2018-06-04T03:10:48.143Z,17.30
2018-06-04T03:13:16.664Z,17.30
2018-06-04T03:15:45.198Z,17.20
2018-06-04T03:18:13.738Z,17.10
2018-06-04T03:20:42.295Z,17.00
2018-06-04T03:33:03.610Z,17.00
2018-06-04T03:38:00.384Z,16.90
2018-06-04T03:40:28.980Z,16.90
2018-06-04T03:42:57.474Z,17.00
2018-06-04T03:45:25.988Z,17.00
2018-06-04T03:47:54.476Z,17.00
2018-06-04T03:50:22.984Z,17.00
2018-06-04T03:52:51.509Z,17.00
2018-06-04T03:55:20.083Z,17.00
2018-06-04T04:00:16.838Z,17.10
2018-06-04T04:05:13.609Z,17.10
2018-06-04T04:07:43.016Z,17.10
2018-06-04T04:12:39.796Z,17.00
2018-06-04T04:15:08.311Z,17.00
2018-06-04T04:17:36.826Z,17.00
2018-06-04T04:20:05.457Z,17.00
2018-06-04T04:22:33.974Z,16.90
2018-06-04T04:25:02.485Z,16.90
2018-06-04T04:27:30.967Z,16.90
2018-06-04T04:29:59.473Z,16.90
2018-06-04T04:32:28.009Z,16.90
2018-06-04T04:34:56.508Z,16.90
2018-06-04T04:37:25.044Z,17.00
2018-06-04T04:42:21.704Z,17.10
2018-06-04T04:47:18.404Z,17.00
2018-06-04T04:49:46.891Z,16.90
2018-06-04T04:52:15.409Z,16.90
2018-06-04T04:54:43.963Z,16.90
2018-06-04T04:57:12.479Z,17.00
2018-06-04T04:59:41.050Z,17.00
2018-06-04T05:02:09.513Z,16.90
2018-06-04T05:04:38.067Z,16.90
2018-06-04T05:07:06.571Z,17.00
2018-06-04T05:09:35.169Z,17.00
2018-06-04T05:12:03.749Z,17.00
2018-06-04T05:14:32.305Z,17.10
2018-06-04T05:17:00.813Z,17.10
2018-06-04T05:21:57.547Z,17.20
2018-06-04T05:24:26.048Z,17.30
2018-06-04T05:26:54.566Z,17.40
2018-06-04T05:29:23.079Z,17.40
2018-06-04T05:31:51.591Z,17.40
2018-06-04T05:34:20.084Z,17.50
2018-06-04T05:36:48.595Z,17.50
2018-06-04T05:41:45.272Z,17.50
2018-06-04T05:44:13.814Z,17.60
2018-06-04T05:46:42.321Z,18.00
2018-06-04T05:49:10.830Z,18.30
2018-06-04T05:54:07.542Z,18.80
2018-06-04T05:56:36.069Z,19.00
2018-06-04T05:59:04.627Z,19.20
2018-06-04T06:01:33.141Z,19.40
2018-06-04T06:04:01.660Z,19.60
2018-06-04T06:09:11.111Z,19.80
2018-06-04T06:11:39.801Z,20.30
2018-06-04T06:14:08.423Z,20.40
2018-06-04T06:16:37.167Z,20.60
2018-06-04T06:24:02.104Z,21.10
2018-06-04T06:31:27.471Z,21.10
2018-06-04T06:33:55.976Z,21.10
2018-06-04T06:36:24.517Z,21.00
2018-06-04T06:38:53.015Z,21.10
2018-06-04T06:46:17.901Z,21.20
2018-06-04T06:48:46.419Z,21.10
2018-06-04T06:51:14.933Z,21.00
2018-06-04T06:53:43.492Z,21.00
2018-06-04T06:56:12.131Z,21.20
2018-06-04T06:58:40.734Z,21.40
2018-06-04T07:01:09.258Z,21.80
2018-06-04T07:03:37.899Z,21.90
2018-06-04T07:06:06.387Z,22.20
2018-06-04T07:08:34.949Z,22.50
2018-06-04T07:13:35.762Z,22.90
2018-06-04T07:16:04.315Z,22.90
2018-06-04T07:18:32.840Z,23.00
2018-06-04T07:21:01.434Z,23.00
2018-06-04T07:23:30.273Z,23.00
2018-06-04T07:28:27.173Z,22.80
2018-06-04T07:30:55.733Z,22.60
2018-06-04T07:33:24.244Z,22.70
2018-06-04T07:35:52.757Z,22.60
2018-06-04T07:38:21.307Z,22.70
2018-06-04T07:40:49.863Z,22.80
2018-06-04T07:43:18.512Z,23.00
2018-06-04T07:45:47.004Z,23.30
2018-06-04T07:48:15.564Z,23.50
2018-06-04T07:50:44.128Z,23.70
2018-06-04T07:53:13.464Z,23.90
2018-06-04T07:55:42.420Z,23.80
2018-06-04T07:58:11.327Z,23.50
2018-06-04T08:00:39.983Z,22.90
2018-06-04T08:03:08.478Z,22.80
2018-06-04T08:05:36.962Z,23.00
2018-06-04T08:08:05.538Z,23.30
2018-06-04T08:10:34.058Z,23.60
2018-06-04T08:13:02.584Z,23.70
2018-06-04T08:15:31.180Z,23.70
2018-06-04T08:17:59.883Z,23.90
2018-06-04T08:20:28.368Z,23.80
2018-06-04T08:22:56.921Z,23.80
2018-06-04T08:25:25.538Z,23.80
2018-06-04T08:27:54.101Z,24.00
2018-06-04T08:30:22.682Z,24.00
2018-06-04T08:32:51.429Z,23.90
2018-06-04T08:35:20.026Z,23.90
2018-06-04T08:37:48.654Z,24.00
2018-06-04T08:40:17.718Z,24.00
2018-06-04T08:42:46.980Z,24.00
2018-06-04T08:45:15.589Z,23.90
2018-06-04T08:47:44.503Z,24.10
2018-06-04T08:50:13.199Z,24.30
2018-06-04T08:52:41.878Z,24.40
2018-06-04T08:55:10.478Z,24.40
2018-06-04T08:57:40.104Z,24.40
2018-06-04T09:00:09.338Z,24.20
2018-06-04T09:02:38.296Z,23.90
2018-06-04T09:05:06.820Z,24.10
2018-06-04T09:07:35.423Z,24.20
2018-06-04T09:10:04.091Z,24.50
2018-06-04T09:12:32.669Z,24.50
2018-06-04T09:15:01.309Z,24.30
2018-06-04T09:17:29.922Z,24.10
2018-06-04T09:19:58.715Z,23.90
2018-06-04T09:22:27.267Z,23.70
2018-06-04T09:24:55.859Z,23.70
2018-06-04T09:27:24.613Z,23.50
2018-06-04T09:29:53.375Z,23.20
2018-06-04T09:34:50.687Z,23.20
2018-06-04T09:37:19.380Z,23.30
2018-06-04T09:39:47.978Z,23.20
2018-06-04T09:42:16.624Z,23.30
2018-06-04T09:44:45.203Z,23.30
2018-06-04T09:49:41.996Z,23.40
2018-06-04T09:52:10.543Z,23.50
2018-06-04T09:54:39.120Z,23.70
2018-06-04T09:57:07.699Z,23.80
2018-06-04T09:59:36.240Z,23.90
2018-06-04T10:02:04.776Z,24.30
2018-06-04T10:04:33.390Z,24.90
2018-06-04T10:07:02.011Z,25.40
2018-06-04T10:09:30.565Z,25.60
2018-06-04T10:11:59.193Z,25.80
2018-06-04T10:14:27.721Z,25.90
2018-06-04T10:16:56.227Z,25.80
2018-06-04T10:19:24.752Z,25.70
2018-06-04T10:21:53.277Z,25.50
2018-06-04T10:24:21.802Z,25.50
2018-06-04T10:31:46.687Z,25.30
2018-06-04T10:34:15.199Z,25.30
2018-06-04T10:39:12.098Z,25.30
2018-06-04T10:41:40.614Z,25.30
2018-06-04T10:44:09.118Z,25.30
2018-06-04T10:46:37.698Z,25.30
2018-06-04T10:49:06.196Z,25.20
2018-06-04T10:51:34.873Z,25.20
2018-06-04T10:54:03.428Z,25.30
2018-06-04T10:56:32.009Z,25.30
2018-06-04T10:59:00.599Z,25.40
2018-06-04T11:01:29.181Z,25.60
2018-06-04T11:03:57.741Z,25.90
2018-06-04T11:06:26.704Z,25.90
2018-06-04T11:08:55.185Z,25.90
2018-06-04T11:11:23.916Z,26.10
2018-06-04T11:16:20.660Z,26.40
2018-06-04T11:18:49.291Z,26.30
2018-06-04T11:21:17.804Z,26.30
2018-06-04T11:23:46.414Z,26.30
2018-06-04T11:26:14.934Z,26.30
2018-06-04T11:28:43.554Z,26.20
2018-06-04T11:31:12.117Z,26.20
2018-06-04T11:36:08.859Z,26.40
2018-06-04T11:38:37.342Z,26.40
2018-06-04T11:41:05.882Z,26.50
2018-06-04T11:43:34.427Z,26.60
2018-06-04T11:46:02.944Z,27.00
2018-06-04T11:48:31.465Z,26.90
2018-06-04T11:51:00.035Z,26.80
2018-06-04T11:53:28.545Z,26.70
2018-06-04T11:55:57.059Z,26.60
2018-06-04T11:58:25.612Z,26.50
2018-06-04T12:00:54.189Z,26.50
2018-06-04T12:03:22.706Z,26.50
2018-06-04T12:05:51.273Z,26.50
2018-06-04T12:08:19.823Z,26.50
2018-06-04T12:10:48.367Z,26.60
2018-06-04T12:13:16.889Z,26.70
2018-06-04T12:18:13.603Z,27.10
2018-06-04T12:20:42.133Z,27.10
2018-06-04T12:23:10.752Z,27.20
2018-06-04T12:25:39.289Z,27.40
2018-06-04T12:28:07.921Z,27.20
2018-06-04T12:30:36.531Z,27.10
2018-06-04T12:33:05.124Z,27.00
2018-06-04T12:35:33.649Z,26.70
2018-06-04T12:38:02.196Z,26.60
2018-06-04T12:40:30.755Z,26.70
2018-06-04T12:42:59.314Z,26.40
2018-06-04T12:45:27.872Z,26.10
2018-06-04T12:47:56.368Z,26.00
2018-06-04T12:50:24.874Z,26.00
2018-06-04T12:52:53.426Z,26.10
2018-06-04T12:55:22.079Z,26.40
2018-06-04T12:57:50.591Z,26.60
2018-06-04T13:00:19.155Z,26.80
2018-06-04T13:02:47.718Z,27.10
2018-06-04T13:05:16.262Z,27.10
2018-06-04T13:07:44.843Z,27.00
2018-06-04T13:10:13.368Z,26.90
2018-06-04T13:12:41.879Z,26.80
2018-06-04T13:15:10.432Z,26.70
2018-06-04T13:17:38.956Z,26.40
2018-06-04T13:20:07.541Z,26.40
2018-06-04T13:25:04.214Z,26.20
2018-06-04T13:27:32.744Z,26.20
2018-06-04T13:30:01.264Z,26.10
2018-06-04T13:32:29.844Z,26.00
2018-06-04T13:34:58.361Z,26.10
2018-06-04T13:37:26.977Z,26.00
2018-06-04T13:39:55.487Z,25.90
2018-06-04T13:42:24.014Z,25.90
2018-06-04T13:44:52.525Z,26.00
2018-06-04T13:47:21.038Z,25.90
2018-06-04T13:49:49.544Z,25.90
2018-06-04T13:52:18.077Z,25.80
2018-06-04T13:54:46.583Z,25.70
2018-06-04T13:57:15.127Z,25.70
2018-06-04T14:02:11.825Z,25.80
2018-06-04T14:04:40.437Z,25.90
2018-06-04T14:07:08.987Z,25.90
2018-06-04T14:09:37.509Z,25.80
2018-06-04T14:12:06.039Z,25.80
2018-06-04T14:14:34.575Z,25.80
2018-06-04T14:17:03.092Z,25.60
2018-06-04T14:19:31.603Z,25.50
2018-06-04T14:24:28.308Z,25.40
2018-06-04T14:26:56.874Z,25.30
2018-06-04T14:29:25.381Z,25.20
2018-06-04T14:31:53.896Z,25.00
2018-06-04T14:34:22.363Z,25.10
2018-06-04T14:36:50.866Z,25.50
2018-06-04T14:39:19.433Z,26.50
2018-06-04T14:41:47.950Z,27.20
2018-06-04T14:44:16.473Z,26.90
2018-06-04T14:46:44.980Z,26.70
2018-06-04T14:49:13.508Z,26.30
2018-06-04T14:51:42.110Z,26.00
2018-06-04T14:54:10.646Z,25.90
2018-06-04T14:56:39.243Z,25.80
2018-06-04T14:59:07.748Z,26.00
2018-06-04T15:01:36.254Z,27.00
2018-06-04T15:04:04.836Z,27.90
2018-06-04T15:06:33.418Z,28.60
2018-06-04T15:09:01.946Z,28.50
2018-06-04T15:11:30.515Z,28.30
2018-06-04T15:13:59.061Z,28.40
2018-06-04T15:16:27.593Z,28.90
2018-06-04T15:18:56.158Z,29.70
2018-06-04T15:21:24.696Z,30.00
2018-06-04T15:23:53.213Z,29.90
2018-06-04T15:26:21.755Z,30.20
2018-06-04T15:28:50.263Z,30.40
2018-06-04T15:31:18.761Z,30.80
2018-06-04T15:33:47.243Z,30.90
2018-06-04T15:36:15.771Z,31.40
2018-06-04T15:38:44.339Z,31.50
2018-06-04T15:41:12.869Z,31.90
2018-06-04T15:43:41.414Z,31.80
2018-06-04T15:46:09.968Z,31.30
2018-06-04T15:48:38.526Z,30.50
2018-06-04T15:51:07.251Z,29.40
2018-06-04T15:53:35.790Z,28.50
2018-06-04T15:56:04.325Z,28.40
2018-06-04T15:58:32.885Z,28.60
2018-06-04T16:01:01.460Z,29.10
2018-06-04T16:03:29.983Z,29.70
2018-06-04T16:05:58.687Z,30.10
2018-06-04T16:08:27.249Z,30.30
2018-06-04T16:10:55.796Z,30.00
2018-06-04T16:15:52.571Z,28.60
2018-06-04T16:18:21.089Z,28.00
2018-06-04T16:20:49.573Z,27.60
2018-06-04T16:23:18.190Z,27.50
2018-06-04T16:25:46.818Z,27.20
2018-06-04T16:30:43.486Z,26.50
2018-06-04T16:35:40.308Z,26.00
2018-06-04T16:38:08.468Z,25.80
2018-06-04T16:40:37.014Z,25.60
2018-06-04T16:43:05.605Z,25.50
2018-06-04T16:48:02.329Z,25.20
2018-06-04T16:50:30.878Z,25.00
2018-06-04T16:52:59.360Z,24.70
2018-06-04T16:55:27.910Z,24.50
2018-06-04T17:00:24.740Z,24.20
2018-06-04T17:02:53.303Z,24.10
2018-06-04T17:05:21.848Z,23.90
2018-06-04T17:07:50.354Z,23.80
2018-06-04T17:10:18.876Z,23.80
2018-06-04T17:12:47.383Z,23.80
2018-06-04T17:15:15.920Z,23.70
2018-06-04T17:17:44.470Z,23.70
2018-06-04T17:20:16.499Z,23.70
2018-06-04T17:22:45.107Z,23.70
2018-06-04T17:25:13.659Z,23.80
2018-06-04T17:27:42.213Z,23.70
2018-06-04T17:30:10.736Z,23.70
2018-06-04T17:32:39.287Z,23.70
2018-06-04T17:35:07.826Z,23.70
2018-06-04T17:37:36.400Z,23.60
2018-06-04T17:40:04.937Z,23.50
2018-06-04T17:42:33.460Z,23.50
2018-06-04T17:47:30.179Z,23.40
2018-06-04T17:49:58.675Z,23.40
2018-06-04T17:52:27.180Z,23.30
2018-06-04T17:54:55.756Z,23.30
2018-06-04T17:57:24.312Z,23.40
2018-06-04T17:59:52.840Z,23.30
2018-06-04T18:04:49.924Z,23.10
2018-06-04T18:09:46.623Z,23.00
2018-06-04T18:12:15.119Z,22.90
2018-06-04T18:14:43.632Z,22.80
2018-06-04T18:17:12.204Z,22.80
2018-06-04T18:19:40.741Z,22.80
2018-06-04T18:22:09.272Z,22.70
2018-06-04T18:24:37.823Z,22.60
2018-06-04T18:27:06.434Z,22.50
2018-06-04T18:29:34.975Z,22.40
2018-06-04T18:32:03.532Z,22.40
2018-06-04T18:34:32.104Z,22.40
2018-06-04T18:37:00.636Z,22.30
2018-06-04T18:39:29.178Z,22.30
2018-06-04T18:41:57.730Z,22.30
2018-06-04T18:44:26.271Z,22.30
2018-06-04T18:46:54.805Z,22.20
2018-06-04T18:49:23.359Z,22.20
2018-06-04T18:51:51.921Z,22.20
2018-06-04T18:54:20.456Z,22.30
2018-06-04T18:59:17.218Z,22.20
2018-06-04T19:04:13.901Z,22.20
2018-06-04T19:06:42.529Z,22.20
2018-06-04T19:09:11.296Z,22.10
2018-06-04T19:14:07.957Z,21.80
2018-06-04T19:16:37.422Z,21.80
2018-06-04T19:19:05.975Z,21.80
2018-06-04T19:21:34.535Z,21.80
2018-06-04T19:24:03.079Z,21.80
2018-06-04T19:26:31.573Z,21.80
2018-06-04T19:29:00.087Z,21.70
2018-06-04T19:31:28.636Z,21.70
2018-06-04T19:33:57.204Z,21.60
2018-06-04T19:36:25.804Z,21.60
2018-06-04T19:38:54.481Z,21.60
2018-06-04T19:41:22.993Z,21.40
2018-06-04T19:43:51.612Z,21.40
2018-06-04T19:48:48.301Z,21.20
2018-06-04T19:51:16.830Z,21.20
2018-06-04T19:53:45.349Z,21.10
2018-06-04T19:56:13.890Z,21.10
2018-06-04T19:58:42.434Z,21.10
2018-06-04T20:01:11.251Z,21.00
2018-06-04T20:03:39.818Z,21.00
2018-06-04T20:06:08.329Z,21.10
2018-06-04T20:08:36.882Z,21.20
2018-06-04T20:11:05.434Z,21.20
2018-06-04T20:13:33.990Z,21.20
2018-06-04T20:16:02.559Z,21.30
2018-06-04T20:18:31.072Z,21.30
2018-06-04T20:20:59.576Z,21.30
2018-06-04T20:23:28.108Z,21.30
2018-06-04T20:25:56.637Z,21.30
2018-06-04T20:28:25.144Z,21.30
2018-06-04T20:30:53.696Z,21.30
2018-06-04T20:33:22.179Z,21.30
2018-06-04T20:35:50.758Z,21.30
2018-06-04T20:38:19.284Z,21.20
2018-06-04T20:40:47.782Z,21.20
2018-06-04T20:50:40.818Z,21.00
2018-06-04T20:53:09.335Z,20.90
2018-06-04T20:55:37.853Z,20.90
2018-06-04T20:58:06.415Z,20.90
2018-06-04T21:00:34.941Z,20.90
2018-06-04T21:03:03.452Z,20.90
2018-06-04T21:05:32.021Z,20.90
2018-06-04T21:08:00.545Z,20.90
2018-06-04T21:10:29.053Z,20.90
2018-06-04T21:12:57.581Z,20.90
2018-06-04T21:15:26.128Z,20.90
2018-06-04T21:17:54.636Z,20.80
2018-06-04T21:20:23.175Z,20.80
2018-06-04T21:22:51.665Z,20.80
2018-06-04T21:25:20.192Z,20.70
2018-06-04T21:27:48.691Z,20.70
2018-06-04T21:30:17.220Z,20.60
2018-06-04T21:32:45.728Z,20.60
2018-06-04T21:35:14.283Z,20.50
2018-06-04T21:37:42.824Z,20.40
2018-06-04T21:40:11.315Z,20.40
2018-06-04T21:42:39.914Z,20.30
2018-06-04T21:45:08.470Z,20.30
2018-06-04T21:47:36.999Z,20.30
2018-06-04T21:52:33.700Z,20.20
2018-06-04T21:55:02.192Z,20.20
2018-06-04T21:57:30.688Z,20.20
2018-06-04T21:59:59.198Z,20.10
2018-06-04T22:02:27.689Z,20.00
2018-06-04T22:04:56.212Z,20.00
2018-06-04T22:07:24.725Z,19.90
2018-06-04T22:09:53.261Z,19.90
2018-06-04T22:14:49.981Z,19.90
2018-06-04T22:17:18.503Z,19.90
2018-06-04T22:19:47.038Z,19.90
2018-06-04T22:22:15.543Z,19.90
2018-06-04T22:24:44.057Z,19.80
2018-06-04T22:27:12.569Z,19.80
2018-06-04T22:29:41.055Z,19.80
2018-06-04T22:32:09.610Z,19.70
2018-06-04T22:34:38.136Z,19.70
2018-06-04T22:37:06.621Z,19.60
2018-06-04T22:42:03.313Z,19.40
2018-06-04T22:44:31.799Z,19.40
2018-06-04T22:47:00.303Z,19.20
2018-06-04T22:49:28.801Z,19.20
2018-06-04T22:51:57.307Z,19.20
2018-06-04T22:54:25.829Z,19.10
2018-06-04T22:56:54.331Z,19.10
2018-06-04T22:59:22.846Z,19.10
2018-06-04T23:01:51.364Z,19.00
2018-06-04T23:04:19.870Z,19.00
2018-06-04T23:06:48.423Z,18.90
2018-06-04T23:09:16.934Z,18.90
2018-06-04T23:11:45.456Z,18.80
2018-06-04T23:14:13.931Z,18.70
2018-06-04T23:16:42.440Z,18.70
2018-06-04T23:19:10.945Z,18.60
2018-06-04T23:21:39.444Z,18.60
2018-06-04T23:24:07.922Z,18.50
2018-06-04T23:26:36.434Z,18.50
2018-06-04T23:31:33.076Z,18.40
2018-06-04T23:34:01.593Z,18.50
2018-06-04T23:36:30.108Z,18.50
2018-06-04T23:38:58.632Z,18.50
2018-06-04T23:41:27.154Z,18.50
2018-06-04T23:43:55.642Z,18.50
2018-06-04T23:46:24.125Z,18.50
2018-06-04T23:48:52.630Z,18.50
2018-06-04T23:51:21.138Z,18.40
2018-06-04T23:53:49.614Z,18.30
2018-06-04T23:56:18.424Z,18.30
2018-06-04T23:58:46.956Z,18.40
